sensor_id;sensor_type;location;lat;lon;timestamp;temperature;humidity
53695;DHT22;39588;51.124;7.190;2023-11-22T00:01:22;6.20;99.90
53695;DHT22;39588;51.124;7.190;2023-11-22T00:03:48;6.20;99.90
53695;DHT22;39588;51.124;7.190;2023-11-22T00:06:13;6.10;99.90
53695;DHT22;39588;51.124;7.190;2023-11-22T00:08:39;6.10;99.90
53695;DHT22;39588;51.124;7.190;2023-11-22T00:11:04;6.10;99.90
53695;DHT22;39588;51.124;7.190;2023-11-22T00:13:30;6.10;99.90
53695;DHT22;39588;51.124;7.190;2023-11-22T00:20:51;6.10;99.90
53695;DHT22;39588;51.124;7.190;2023-11-22T00:23:17;6.10;99.90
53695;DHT22;39588;51.124;7.190;2023-11-22T00:25:42;6.10;99.90
53695;DHT22;39588;51.124;7.190;2023-11-22T00:28:08;6.10;99.90
53695;DHT22;39588;51.124;7.190;2023-11-22T00:30:33;6.20;99.90
53695;DHT22;39588;51.124;7.190;2023-11-22T00:32:59;6.20;99.90
53695;DHT22;39588;51.124;7.190;2023-11-22T00:35:25;6.20;99.90
53695;DHT22;39588;51.124;7.190;2023-11-22T00:37:50;6.10;99.90
53695;DHT22;39588;51.124;7.190;2023-11-22T00:45:09;6.20;99.90
53695;DHT22;39588;51.124;7.190;2023-11-22T00:47:35;6.20;99.90
53695;DHT22;39588;51.124;7.190;2023-11-22T00:50:02;6.10;99.90
53695;DHT22;39588;51.124;7.190;2023-11-22T00:52:30;6.10;99.90
53695;DHT22;39588;51.124;7.190;2023-11-22T00:54:55;6.00;99.90
53695;DHT22;39588;51.124;7.190;2023-11-22T00:57:21;6.00;99.90
53695;DHT22;39588;51.124;7.190;2023-11-22T01:02:13;6.00;99.90
53695;DHT22;39588;51.124;7.190;2023-11-22T01:07:05;6.10;99.90
53695;DHT22;39588;51.124;7.190;2023-11-22T01:09:32;6.20;99.90
53695;DHT22;39588;51.124;7.190;2023-11-22T01:11:58;6.20;99.90
53695;DHT22;39588;51.124;7.190;2023-11-22T01:14:24;6.20;99.90
53695;DHT22;39588;51.124;7.190;2023-11-22T01:24:08;6.00;99.90
53695;DHT22;39588;51.124;7.190;2023-11-22T01:31:27;5.80;99.90
53695;DHT22;39588;51.124;7.190;2023-11-22T01:33:54;5.80;99.90
53695;DHT22;39588;51.124;7.190;2023-11-22T01:36:19;5.80;99.90
53695;DHT22;39588;51.124;7.190;2023-11-22T01:38:45;5.80;99.90
53695;DHT22;39588;51.124;7.190;2023-11-22T01:41:12;5.70;99.90
53695;DHT22;39588;51.124;7.190;2023-11-22T01:43:41;5.70;99.90
53695;DHT22;39588;51.124;7.190;2023-11-22T01:46:23;5.70;99.90
53695;DHT22;39588;51.124;7.190;2023-11-22T01:48:50;5.70;99.90
53695;DHT22;39588;51.124;7.190;2023-11-22T01:51:19;5.70;99.90
53695;DHT22;39588;51.124;7.190;2023-11-22T01:53:46;5.70;99.90
53695;DHT22;39588;51.124;7.190;2023-11-22T01:56:13;5.60;99.90
53695;DHT22;39588;51.124;7.190;2023-11-22T02:05:57;5.50;99.90
53695;DHT22;39588;51.124;7.190;2023-11-22T02:08:22;5.50;99.90
53695;DHT22;39588;51.124;7.190;2023-11-22T02:10:57;5.50;99.90
53695;DHT22;39588;51.124;7.190;2023-11-22T02:13:24;5.50;99.90
53695;DHT22;39588;51.124;7.190;2023-11-22T02:20:42;5.50;99.90
53695;DHT22;39588;51.124;7.190;2023-11-22T02:23:09;5.50;99.90
53695;DHT22;39588;51.124;7.190;2023-11-22T02:25:35;5.50;99.90
53695;DHT22;39588;51.124;7.190;2023-11-22T02:28:01;5.50;99.90
53695;DHT22;39588;51.124;7.190;2023-11-22T02:32:54;5.50;99.90
53695;DHT22;39588;51.124;7.190;2023-11-22T02:36:46;5.60;99.90
53695;DHT22;39588;51.124;7.190;2023-11-22T02:39:11;5.50;99.90
53695;DHT22;39588;51.124;7.190;2023-11-22T02:41:38;5.50;99.90
53695;DHT22;39588;51.124;7.190;2023-11-22T02:46:32;5.40;99.90
53695;DHT22;39588;51.124;7.190;2023-11-22T02:48:58;5.30;99.90
53695;DHT22;39588;51.124;7.190;2023-11-22T02:56:18;5.10;99.90
53695;DHT22;39588;51.124;7.190;2023-11-22T02:58:44;5.10;99.90
53695;DHT22;39588;51.124;7.190;2023-11-22T03:01:09;5.10;99.90
53695;DHT22;39588;51.124;7.190;2023-11-22T03:03:35;5.00;99.90
53695;DHT22;39588;51.124;7.190;2023-11-22T03:06:01;5.00;99.90
53695;DHT22;39588;51.124;7.190;2023-11-22T03:18:12;5.20;99.90
53695;DHT22;39588;51.124;7.190;2023-11-22T03:23:04;5.20;99.90
53695;DHT22;39588;51.124;7.190;2023-11-22T03:30:22;5.00;99.90
53695;DHT22;39588;51.124;7.190;2023-11-22T03:35:15;4.80;99.90
53695;DHT22;39588;51.124;7.190;2023-11-22T03:40:08;4.70;99.90
53695;DHT22;39588;51.124;7.190;2023-11-22T03:42:38;4.70;99.90
53695;DHT22;39588;51.124;7.190;2023-11-22T03:45:05;4.80;99.90
53695;DHT22;39588;51.124;7.190;2023-11-22T03:47:31;4.80;99.90
53695;DHT22;39588;51.124;7.190;2023-11-22T03:49:58;4.80;99.90
53695;DHT22;39588;51.124;7.190;2023-11-22T03:52:25;4.80;99.90
53695;DHT22;39588;51.124;7.190;2023-11-22T03:54:52;4.70;99.90
53695;DHT22;39588;51.124;7.190;2023-11-22T03:57:18;4.70;99.90
53695;DHT22;39588;51.124;7.190;2023-11-22T03:59:43;4.70;99.90
53695;DHT22;39588;51.124;7.190;2023-11-22T04:02:09;4.70;99.90
53695;DHT22;39588;51.124;7.190;2023-11-22T04:04:37;4.70;99.90
53695;DHT22;39588;51.124;7.190;2023-11-22T04:07:05;4.60;99.90
53695;DHT22;39588;51.124;7.190;2023-11-22T04:11:58;4.40;99.90
53695;DHT22;39588;51.124;7.190;2023-11-22T04:19:16;4.30;99.90
53695;DHT22;39588;51.124;7.190;2023-11-22T04:31:25;3.90;99.90
53695;DHT22;39588;51.124;7.190;2023-11-22T04:33:51;3.80;99.90
53695;DHT22;39588;51.124;7.190;2023-11-22T04:36:18;3.80;99.90
53695;DHT22;39588;51.124;7.190;2023-11-22T04:38:43;3.70;99.90
53695;DHT22;39588;51.124;7.190;2023-11-22T04:41:09;3.70;99.90
53695;DHT22;39588;51.124;7.190;2023-11-22T04:43:35;3.70;99.90
53695;DHT22;39588;51.124;7.190;2023-11-22T04:50:52;3.60;99.90
53695;DHT22;39588;51.124;7.190;2023-11-22T04:53:19;3.50;99.90
53695;DHT22;39588;51.124;7.190;2023-11-22T04:55:44;3.50;99.90
53695;DHT22;39588;51.124;7.190;2023-11-22T04:58:10;3.40;99.90
53695;DHT22;39588;51.124;7.190;2023-11-22T05:00:36;3.50;99.90
53695;DHT22;39588;51.124;7.190;2023-11-22T05:03:02;3.40;99.90
53695;DHT22;39588;51.124;7.190;2023-11-22T05:05:28;3.40;99.90
53695;DHT22;39588;51.124;7.190;2023-11-22T05:12:46;3.30;99.90
53695;DHT22;39588;51.124;7.190;2023-11-22T05:15:12;3.20;99.90
53695;DHT22;39588;51.124;7.190;2023-11-22T05:17:39;3.20;99.90
53695;DHT22;39588;51.124;7.190;2023-11-22T05:22:35;3.20;99.90
53695;DHT22;39588;51.124;7.190;2023-11-22T05:25:00;3.20;99.90
53695;DHT22;39588;51.124;7.190;2023-11-22T05:29:53;3.20;99.90
53695;DHT22;39588;51.124;7.190;2023-11-22T05:32:19;3.20;99.90
53695;DHT22;39588;51.124;7.190;2023-11-22T05:37:11;3.10;99.90
53695;DHT22;39588;51.124;7.190;2023-11-22T05:39:37;3.10;99.90
53695;DHT22;39588;51.124;7.190;2023-11-22T05:42:03;3.00;99.90
53695;DHT22;39588;51.124;7.190;2023-11-22T05:44:29;3.00;99.90
53695;DHT22;39588;51.124;7.190;2023-11-22T05:49:20;3.00;99.90
53695;DHT22;39588;51.124;7.190;2023-11-22T05:51:46;3.00;99.90
53695;DHT22;39588;51.124;7.190;2023-11-22T05:54:11;3.00;99.90
53695;DHT22;39588;51.124;7.190;2023-11-22T05:56:38;3.00;99.90
53695;DHT22;39588;51.124;7.190;2023-11-22T05:59:03;3.00;99.90
53695;DHT22;39588;51.124;7.190;2023-11-22T06:03:56;3.00;99.90
53695;DHT22;39588;51.124;7.190;2023-11-22T06:06:22;3.00;99.90
53695;DHT22;39588;51.124;7.190;2023-11-22T06:08:48;3.00;99.90
53695;DHT22;39588;51.124;7.190;2023-11-22T06:11:14;2.90;99.90
53695;DHT22;39588;51.124;7.190;2023-11-22T06:13:41;2.90;99.90
53695;DHT22;39588;51.124;7.190;2023-11-22T06:16:08;2.80;99.90
53695;DHT22;39588;51.124;7.190;2023-11-22T06:18:35;2.70;99.90
53695;DHT22;39588;51.124;7.190;2023-11-22T06:21:06;2.70;99.90
53695;DHT22;39588;51.124;7.190;2023-11-22T06:28:24;2.60;99.90
53695;DHT22;39588;51.124;7.190;2023-11-22T06:30:50;2.60;99.90
53695;DHT22;39588;51.124;7.190;2023-11-22T06:33:16;2.60;99.90
53695;DHT22;39588;51.124;7.190;2023-11-22T06:35:41;2.60;99.90
53695;DHT22;39588;51.124;7.190;2023-11-22T06:38:08;2.50;99.90
53695;DHT22;39588;51.124;7.190;2023-11-22T06:40:34;2.50;99.90
53695;DHT22;39588;51.124;7.190;2023-11-22T06:42:59;2.50;99.90
53695;DHT22;39588;51.124;7.190;2023-11-22T06:45:25;2.40;99.90
53695;DHT22;39588;51.124;7.190;2023-11-22T06:47:51;2.40;99.90
53695;DHT22;39588;51.124;7.190;2023-11-22T06:55:09;2.40;99.90
53695;DHT22;39588;51.124;7.190;2023-11-22T06:57:38;2.40;99.90
53695;DHT22;39588;51.124;7.190;2023-11-22T07:00:05;2.30;99.90
53695;DHT22;39588;51.124;7.190;2023-11-22T07:02:32;2.30;99.90
53695;DHT22;39588;51.124;7.190;2023-11-22T07:04:57;2.30;99.90
53695;DHT22;39588;51.124;7.190;2023-11-22T07:07:25;2.30;99.90
53695;DHT22;39588;51.124;7.190;2023-11-22T07:09:50;2.30;99.90
53695;DHT22;39588;51.124;7.190;2023-11-22T07:12:16;2.30;99.90
53695;DHT22;39588;51.124;7.190;2023-11-22T07:14:42;2.30;99.90
53695;DHT22;39588;51.124;7.190;2023-11-22T07:17:08;2.30;99.90
53695;DHT22;39588;51.124;7.190;2023-11-22T07:19:34;2.30;99.90
53695;DHT22;39588;51.124;7.190;2023-11-22T07:22:04;2.30;99.90
53695;DHT22;39588;51.124;7.190;2023-11-22T07:26:59;2.30;99.90
53695;DHT22;39588;51.124;7.190;2023-11-22T07:31:54;2.40;99.90
53695;DHT22;39588;51.124;7.190;2023-11-22T07:34:21;2.40;99.90
53695;DHT22;39588;51.124;7.190;2023-11-22T07:36:47;2.40;99.90
53695;DHT22;39588;51.124;7.190;2023-11-22T07:39:13;2.40;99.90
53695;DHT22;39588;51.124;7.190;2023-11-22T07:53:49;2.50;99.90
53695;DHT22;39588;51.124;7.190;2023-11-22T07:56:15;2.50;99.90
53695;DHT22;39588;51.124;7.190;2023-11-22T08:01:07;2.50;99.90
53695;DHT22;39588;51.124;7.190;2023-11-22T08:03:39;2.50;99.90
53695;DHT22;39588;51.124;7.190;2023-11-22T08:06:06;2.60;99.90
53695;DHT22;39588;51.124;7.190;2023-11-22T08:08:33;2.60;99.90
53695;DHT22;39588;51.124;7.190;2023-11-22T08:11:03;2.70;99.90
53695;DHT22;39588;51.124;7.190;2023-11-22T08:13:29;2.70;99.90
53695;DHT22;39588;51.124;7.190;2023-11-22T08:18:22;2.90;99.90
53695;DHT22;39588;51.124;7.190;2023-11-22T08:20:48;3.00;99.90
53695;DHT22;39588;51.124;7.190;2023-11-22T08:23:15;3.00;99.70
53695;DHT22;39588;51.124;7.190;2023-11-22T08:25:40;3.10;99.60
53695;DHT22;39588;51.124;7.190;2023-11-22T08:30:35;3.20;99.30
53695;DHT22;39588;51.124;7.190;2023-11-22T08:33:01;3.20;98.70
53695;DHT22;39588;51.124;7.190;2023-11-22T08:35:27;3.30;99.10
53695;DHT22;39588;51.124;7.190;2023-11-22T08:37:53;3.40;99.10
53695;DHT22;39588;51.124;7.190;2023-11-22T08:40:19;3.40;98.90
53695;DHT22;39588;51.124;7.190;2023-11-22T08:42:46;3.40;98.40
53695;DHT22;39588;51.124;7.190;2023-11-22T08:45:12;3.40;98.10
53695;DHT22;39588;51.124;7.190;2023-11-22T08:47:39;3.40;97.60
53695;DHT22;39588;51.124;7.190;2023-11-22T08:50:07;3.40;98.10
53695;DHT22;39588;51.124;7.190;2023-11-22T08:52:34;3.50;97.70
53695;DHT22;39588;51.124;7.190;2023-11-22T08:54:59;3.50;97.50
53695;DHT22;39588;51.124;7.190;2023-11-22T08:57:29;3.50;96.80
53695;DHT22;39588;51.124;7.190;2023-11-22T08:59:55;3.60;97.20
53695;DHT22;39588;51.124;7.190;2023-11-22T09:02:21;3.60;96.90
53695;DHT22;39588;51.124;7.190;2023-11-22T09:04:48;3.70;96.50
53695;DHT22;39588;51.124;7.190;2023-11-22T09:07:14;3.70;96.70
53695;DHT22;39588;51.124;7.190;2023-11-22T09:14:39;3.90;96.50
53695;DHT22;39588;51.124;7.190;2023-11-22T09:22:01;4.20;95.90
53695;DHT22;39588;51.124;7.190;2023-11-22T09:24:27;4.20;95.30
53695;DHT22;39588;51.124;7.190;2023-11-22T09:26:52;4.30;95.50
53695;DHT22;39588;51.124;7.190;2023-11-22T09:29:18;4.50;95.00
53695;DHT22;39588;51.124;7.190;2023-11-22T09:31:44;4.60;94.50
53695;DHT22;39588;51.124;7.190;2023-11-22T09:34:13;4.70;93.00
53695;DHT22;39588;51.124;7.190;2023-11-22T09:36:39;4.70;92.20
53695;DHT22;39588;51.124;7.190;2023-11-22T09:39:05;4.70;93.10
53695;DHT22;39588;51.124;7.190;2023-11-22T09:41:35;4.80;92.80
53695;DHT22;39588;51.124;7.190;2023-11-22T09:44:01;4.80;93.00
53695;DHT22;39588;51.124;7.190;2023-11-22T09:46:27;4.90;92.90
53695;DHT22;39588;51.124;7.190;2023-11-22T09:48:56;4.80;92.30
53695;DHT22;39588;51.124;7.190;2023-11-22T09:51:29;4.90;92.20
53695;DHT22;39588;51.124;7.190;2023-11-22T09:53:59;4.90;92.70
53695;DHT22;39588;51.124;7.190;2023-11-22T09:56:30;5.00;92.60
53695;DHT22;39588;51.124;7.190;2023-11-22T09:58:59;5.10;92.60
53695;DHT22;39588;51.124;7.190;2023-11-22T10:01:27;5.20;92.30
53695;DHT22;39588;51.124;7.190;2023-11-22T10:04:02;5.20;91.80
53695;DHT22;39588;51.124;7.190;2023-11-22T10:06:28;5.20;91.60
53695;DHT22;39588;51.124;7.190;2023-11-22T10:11:26;5.20;92.20
53695;DHT22;39588;51.124;7.190;2023-11-22T10:13:51;5.20;91.60
53695;DHT22;39588;51.124;7.190;2023-11-22T10:16:18;5.30;92.40
53695;DHT22;39588;51.124;7.190;2023-11-22T10:18:46;5.40;92.40
53695;DHT22;39588;51.124;7.190;2023-11-22T10:21:23;5.50;92.50
53695;DHT22;39588;51.124;7.190;2023-11-22T10:23:50;5.60;93.00
53695;DHT22;39588;51.124;7.190;2023-11-22T10:26:19;5.80;93.00
53695;DHT22;39588;51.124;7.190;2023-11-22T10:28:45;5.80;91.80
53695;DHT22;39588;51.124;7.190;2023-11-22T10:31:11;5.70;91.50
53695;DHT22;39588;51.124;7.190;2023-11-22T10:33:40;5.50;90.90
53695;DHT22;39588;51.124;7.190;2023-11-22T10:36:09;5.40;90.70
53695;DHT22;39588;51.124;7.190;2023-11-22T10:38:35;5.30;90.90
53695;DHT22;39588;51.124;7.190;2023-11-22T10:41:05;5.30;91.40
53695;DHT22;39588;51.124;7.190;2023-11-22T10:43:31;5.30;91.40
53695;DHT22;39588;51.124;7.190;2023-11-22T10:46:02;6.70;92.00
53695;DHT22;39588;51.124;7.190;2023-11-22T10:48:28;5.40;91.70
53695;DHT22;39588;51.124;7.190;2023-11-22T10:50:57;5.50;91.60
53695;DHT22;39588;51.124;7.190;2023-11-22T10:53:35;5.60;92.00
53695;DHT22;39588;51.124;7.190;2023-11-22T10:56:17;5.70;91.90
53695;DHT22;39588;51.124;7.190;2023-11-22T10:58:55;5.70;91.50
53695;DHT22;39588;51.124;7.190;2023-11-22T11:01:24;5.40;91.30
53695;DHT22;39588;51.124;7.190;2023-11-22T11:04:01;5.70;91.30
53695;DHT22;39588;51.124;7.190;2023-11-22T11:06:32;5.80;90.50
53695;DHT22;39588;51.124;7.190;2023-11-22T11:09:01;5.80;90.90
53695;DHT22;39588;51.124;7.190;2023-11-22T11:11:31;6.00;91.70
53695;DHT22;39588;51.124;7.190;2023-11-22T11:26:19;5.90;90.90
53695;DHT22;39588;51.124;7.190;2023-11-22T11:28:49;5.00;90.90
53695;DHT22;39588;51.124;7.190;2023-11-22T11:31:16;6.00;90.50
53695;DHT22;39588;51.124;7.190;2023-11-22T11:36:24;6.00;90.40
53695;DHT22;39588;51.124;7.190;2023-11-22T11:38:55;5.90;87.50
53695;DHT22;39588;51.124;7.190;2023-11-22T11:41:32;5.80;88.60
53695;DHT22;39588;51.124;7.190;2023-11-22T11:43:58;6.00;90.30
53695;DHT22;39588;51.124;7.190;2023-11-22T11:46:26;6.20;91.40
53695;DHT22;39588;51.124;7.190;2023-11-22T11:48:53;6.30;91.80
53695;DHT22;39588;51.124;7.190;2023-11-22T11:51:24;6.40;91.20
53695;DHT22;39588;51.124;7.190;2023-11-22T11:53:50;6.40;91.00
53695;DHT22;39588;51.124;7.190;2023-11-22T11:56:15;6.50;91.00
53695;DHT22;39588;51.124;7.190;2023-11-22T11:58:42;6.50;91.00
53695;DHT22;39588;51.124;7.190;2023-11-22T12:01:12;6.60;91.30
53695;DHT22;39588;51.124;7.190;2023-11-22T12:03:38;6.70;90.60
53695;DHT22;39588;51.124;7.190;2023-11-22T12:06:07;6.80;90.50
53695;DHT22;39588;51.124;7.190;2023-11-22T12:08:33;6.90;87.70
53695;DHT22;39588;51.124;7.190;2023-11-22T12:11:05;6.90;88.60
53695;DHT22;39588;51.124;7.190;2023-11-22T12:13:34;6.70;84.50
53695;DHT22;39588;51.124;7.190;2023-11-22T12:16:04;6.40;85.50
53695;DHT22;39588;51.124;7.190;2023-11-22T12:18:40;6.20;87.10
53695;DHT22;39588;51.124;7.190;2023-11-22T12:21:06;6.00;90.50
53695;DHT22;39588;51.124;7.190;2023-11-22T12:23:32;5.80;90.50
53695;DHT22;39588;51.124;7.190;2023-11-22T12:25:58;5.60;91.50
53695;DHT22;39588;51.124;7.190;2023-11-22T12:28:26;5.60;92.70
53695;DHT22;39588;51.124;7.190;2023-11-22T12:30:52;5.60;92.30
53695;DHT22;39588;51.124;7.190;2023-11-22T12:33:19;5.60;92.20
53695;DHT22;39588;51.124;7.190;2023-11-22T12:35:46;5.60;91.50
53695;DHT22;39588;51.124;7.190;2023-11-22T12:38:12;5.60;92.40
53695;DHT22;39588;51.124;7.190;2023-11-22T12:40:43;5.50;92.80
53695;DHT22;39588;51.124;7.190;2023-11-22T12:43:08;5.60;92.70
53695;DHT22;39588;51.124;7.190;2023-11-22T12:45:34;5.60;92.50
53695;DHT22;39588;51.124;7.190;2023-11-22T12:48:23;5.50;92.20
53695;DHT22;39588;51.124;7.190;2023-11-22T12:50:49;5.50;92.20
53695;DHT22;39588;51.124;7.190;2023-11-22T12:53:15;5.50;91.90
53695;DHT22;39588;51.124;7.190;2023-11-22T12:55:51;5.50;92.30
53695;DHT22;39588;51.124;7.190;2023-11-22T12:58:19;5.60;91.60
53695;DHT22;39588;51.124;7.190;2023-11-22T13:00:46;5.60;91.90
53695;DHT22;39588;51.124;7.190;2023-11-22T13:03:12;5.60;91.00
53695;DHT22;39588;51.124;7.190;2023-11-22T13:05:39;5.60;91.40
53695;DHT22;39588;51.124;7.190;2023-11-22T13:08:08;5.70;91.80
53695;DHT22;39588;51.124;7.190;2023-11-22T13:10:36;5.70;91.60
53695;DHT22;39588;51.124;7.190;2023-11-22T13:13:02;5.80;91.20
53695;DHT22;39588;51.124;7.190;2023-11-22T13:17:55;5.80;92.30
53695;DHT22;39588;51.124;7.190;2023-11-22T13:20:25;5.80;92.60
53695;DHT22;39588;51.124;7.190;2023-11-22T13:22:55;5.80;92.00
53695;DHT22;39588;51.124;7.190;2023-11-22T13:25:21;5.80;92.90
53695;DHT22;39588;51.124;7.190;2023-11-22T13:27:49;5.80;92.70
53695;DHT22;39588;51.124;7.190;2023-11-22T13:30:16;5.70;92.30
53695;DHT22;39588;51.124;7.190;2023-11-22T13:32:45;5.70;92.50
53695;DHT22;39588;51.124;7.190;2023-11-22T13:37:47;5.70;93.20
53695;DHT22;39588;51.124;7.190;2023-11-22T13:40:15;5.70;91.40
53695;DHT22;39588;51.124;7.190;2023-11-22T13:42:44;5.80;91.90
53695;DHT22;39588;51.124;7.190;2023-11-22T13:45:11;5.90;92.20
53695;DHT22;39588;51.124;7.190;2023-11-22T13:47:42;6.10;92.70
53695;DHT22;39588;51.124;7.190;2023-11-22T13:55:00;6.10;91.30
53695;DHT22;39588;51.124;7.190;2023-11-22T13:57:30;6.20;91.80
53695;DHT22;39588;51.124;7.190;2023-11-22T14:02:24;6.20;91.70
53695;DHT22;39588;51.124;7.190;2023-11-22T14:04:49;6.30;91.40
53695;DHT22;39588;51.124;7.190;2023-11-22T14:14:33;6.30;92.70
53695;DHT22;39588;51.124;7.190;2023-11-22T14:16:58;6.30;92.90
53695;DHT22;39588;51.124;7.190;2023-11-22T14:19:24;6.20;93.50
53695;DHT22;39588;51.124;7.190;2023-11-22T14:26:43;6.00;92.50
53695;DHT22;39588;51.124;7.190;2023-11-22T14:29:08;5.90;92.90
53695;DHT22;39588;51.124;7.190;2023-11-22T14:36:27;5.80;92.90
53695;DHT22;39588;51.124;7.190;2023-11-22T14:38:53;5.80;92.50
53695;DHT22;39588;51.124;7.190;2023-11-22T14:41:22;5.70;92.80
53695;DHT22;39588;51.124;7.190;2023-11-22T14:43:48;5.60;93.70
53695;DHT22;39588;51.124;7.190;2023-11-22T14:46:13;5.60;93.00
53695;DHT22;39588;51.124;7.190;2023-11-22T14:48:39;5.50;93.70
53695;DHT22;39588;51.124;7.190;2023-11-22T14:51:05;5.50;93.90
53695;DHT22;39588;51.124;7.190;2023-11-22T15:10:33;5.40;95.50
53695;DHT22;39588;51.124;7.190;2023-11-22T15:12:59;5.40;95.40
53695;DHT22;39588;51.124;7.190;2023-11-22T15:15:25;5.40;95.50
53695;DHT22;39588;51.124;7.190;2023-11-22T15:17:51;5.40;95.60
53695;DHT22;39588;51.124;7.190;2023-11-22T15:20:16;5.30;95.60
53695;DHT22;39588;51.124;7.190;2023-11-22T15:22:42;5.30;95.90
53695;DHT22;39588;51.124;7.190;2023-11-22T15:25:08;5.30;95.90
53695;DHT22;39588;51.124;7.190;2023-11-22T15:27:35;5.30;96.00
53695;DHT22;39588;51.124;7.190;2023-11-22T15:44:48;5.40;96.00
53695;DHT22;39588;51.124;7.190;2023-11-22T15:47:13;5.40;95.60
53695;DHT22;39588;51.124;7.190;2023-11-22T15:49:39;5.40;95.60
53695;DHT22;39588;51.124;7.190;2023-11-22T15:52:05;5.40;95.70
53695;DHT22;39588;51.124;7.190;2023-11-22T15:54:31;5.30;95.60
53695;DHT22;39588;51.124;7.190;2023-11-22T15:56:57;5.30;95.90
53695;DHT22;39588;51.124;7.190;2023-11-22T15:59:23;5.30;95.70
53695;DHT22;39588;51.124;7.190;2023-11-22T16:01:48;5.30;95.90
53695;DHT22;39588;51.124;7.190;2023-11-22T16:04:14;5.30;96.30
53695;DHT22;39588;51.124;7.190;2023-11-22T16:06:40;5.30;96.30
53695;DHT22;39588;51.124;7.190;2023-11-22T16:09:06;5.30;96.50
53695;DHT22;39588;51.124;7.190;2023-11-22T16:11:33;5.30;96.50
53695;DHT22;39588;51.124;7.190;2023-11-22T16:13:59;5.30;96.50
53695;DHT22;39588;51.124;7.190;2023-11-22T16:16:24;5.30;96.70
53695;DHT22;39588;51.124;7.190;2023-11-22T16:18:50;5.30;96.60
53695;DHT22;39588;51.124;7.190;2023-11-22T16:21:16;5.30;96.30
53695;DHT22;39588;51.124;7.190;2023-11-22T16:23:41;5.30;96.40
53695;DHT22;39588;51.124;7.190;2023-11-22T16:26:07;5.30;96.20
53695;DHT22;39588;51.124;7.190;2023-11-22T16:28:33;5.20;96.30
53695;DHT22;39588;51.124;7.190;2023-11-22T16:31:00;5.20;95.90
53695;DHT22;39588;51.124;7.190;2023-11-22T16:33:26;5.20;95.80
53695;DHT22;39588;51.124;7.190;2023-11-22T16:35:52;5.20;96.20
53695;DHT22;39588;51.124;7.190;2023-11-22T16:38:17;5.10;96.10
53695;DHT22;39588;51.124;7.190;2023-11-22T16:40:43;5.10;96.10
53695;DHT22;39588;51.124;7.190;2023-11-22T16:43:10;5.10;96.30
53695;DHT22;39588;51.124;7.190;2023-11-22T16:45:36;5.10;96.60
53695;DHT22;39588;51.124;7.190;2023-11-22T16:48:02;5.00;96.70
53695;DHT22;39588;51.124;7.190;2023-11-22T16:50:27;5.10;96.50
53695;DHT22;39588;51.124;7.190;2023-11-22T16:52:53;5.10;96.40
53695;DHT22;39588;51.124;7.190;2023-11-22T16:55:19;5.10;96.60
53695;DHT22;39588;51.124;7.190;2023-11-22T16:57:45;5.10;96.70
53695;DHT22;39588;51.124;7.190;2023-11-22T17:00:11;5.20;96.40
53695;DHT22;39588;51.124;7.190;2023-11-22T17:02:47;5.20;96.60
53695;DHT22;39588;51.124;7.190;2023-11-22T17:05:17;5.20;96.20
53695;DHT22;39588;51.124;7.190;2023-11-22T17:07:44;5.20;96.20
53695;DHT22;39588;51.124;7.190;2023-11-22T17:10:10;5.10;96.40
53695;DHT22;39588;51.124;7.190;2023-11-22T17:12:37;5.10;96.60
53695;DHT22;39588;51.124;7.190;2023-11-22T17:15:03;5.20;96.90
53695;DHT22;39588;51.124;7.190;2023-11-22T17:17:30;5.20;97.00
53695;DHT22;39588;51.124;7.190;2023-11-22T17:19:56;5.20;97.20
53695;DHT22;39588;51.124;7.190;2023-11-22T17:22:22;5.20;97.40
53695;DHT22;39588;51.124;7.190;2023-11-22T17:24:47;5.20;97.50
53695;DHT22;39588;51.124;7.190;2023-11-22T17:27:14;5.10;97.50
53695;DHT22;39588;51.124;7.190;2023-11-22T17:29:40;5.10;98.00
53695;DHT22;39588;51.124;7.190;2023-11-22T17:32:05;5.10;97.90
53695;DHT22;39588;51.124;7.190;2023-11-22T17:34:33;5.10;98.10
53695;DHT22;39588;51.124;7.190;2023-11-22T17:36:59;5.00;97.50
53695;DHT22;39588;51.124;7.190;2023-11-22T17:39:24;4.90;97.30
53695;DHT22;39588;51.124;7.190;2023-11-22T17:41:50;4.90;97.20
53695;DHT22;39588;51.124;7.190;2023-11-22T17:46:42;4.80;97.40
53695;DHT22;39588;51.124;7.190;2023-11-22T17:49:11;4.80;97.60
53695;DHT22;39588;51.124;7.190;2023-11-22T17:51:41;4.80;97.50
53695;DHT22;39588;51.124;7.190;2023-11-22T17:54:07;4.70;97.50
53695;DHT22;39588;51.124;7.190;2023-11-22T17:56:35;4.80;97.50
53695;DHT22;39588;51.124;7.190;2023-11-22T17:59:02;4.80;97.50
53695;DHT22;39588;51.124;7.190;2023-11-22T18:03:57;4.80;97.30
53695;DHT22;39588;51.124;7.190;2023-11-22T18:06:22;4.90;97.40
53695;DHT22;39588;51.124;7.190;2023-11-22T18:08:48;4.90;97.30
53695;DHT22;39588;51.124;7.190;2023-11-22T18:11:14;4.90;97.30
53695;DHT22;39588;51.124;7.190;2023-11-22T18:13:41;4.90;97.40
53695;DHT22;39588;51.124;7.190;2023-11-22T18:16:07;4.90;97.50
53695;DHT22;39588;51.124;7.190;2023-11-22T18:18:33;4.90;97.60
53695;DHT22;39588;51.124;7.190;2023-11-22T18:20:59;4.90;97.30
53695;DHT22;39588;51.124;7.190;2023-11-22T18:23:24;4.80;97.40
53695;DHT22;39588;51.124;7.190;2023-11-22T18:25:51;4.80;97.30
53695;DHT22;39588;51.124;7.190;2023-11-22T18:28:17;4.70;97.30
53695;DHT22;39588;51.124;7.190;2023-11-22T18:30:43;4.70;97.10
53695;DHT22;39588;51.124;7.190;2023-11-22T18:33:09;4.60;97.20
53695;DHT22;39588;51.124;7.190;2023-11-22T18:35:35;4.50;97.40
53695;DHT22;39588;51.124;7.190;2023-11-22T18:38:01;4.50;97.80
53695;DHT22;39588;51.124;7.190;2023-11-22T18:40:27;4.40;98.10
53695;DHT22;39588;51.124;7.190;2023-11-22T18:42:52;4.30;98.00
53695;DHT22;39588;51.124;7.190;2023-11-22T18:45:19;4.30;97.90
53695;DHT22;39588;51.124;7.190;2023-11-22T18:47:45;4.20;98.00
53695;DHT22;39588;51.124;7.190;2023-11-22T18:50:14;4.20;97.90
53695;DHT22;39588;51.124;7.190;2023-11-22T18:52:40;4.10;97.90
53695;DHT22;39588;51.124;7.190;2023-11-22T18:55:05;4.10;98.00
53695;DHT22;39588;51.124;7.190;2023-11-22T18:57:31;4.10;98.20
53695;DHT22;39588;51.124;7.190;2023-11-22T18:59:57;4.10;98.00
53695;DHT22;39588;51.124;7.190;2023-11-22T19:07:14;4.00;98.10
53695;DHT22;39588;51.124;7.190;2023-11-22T19:09:40;4.00;98.00
53695;DHT22;39588;51.124;7.190;2023-11-22T19:12:06;4.00;98.00
53695;DHT22;39588;51.124;7.190;2023-11-22T19:14:32;3.90;98.00
53695;DHT22;39588;51.124;7.190;2023-11-22T19:16:58;3.90;97.90
53695;DHT22;39588;51.124;7.190;2023-11-22T19:21:52;3.90;97.90
53695;DHT22;39588;51.124;7.190;2023-11-22T19:24:18;3.90;98.00
53695;DHT22;39588;51.124;7.190;2023-11-22T19:26:43;3.90;97.90
53695;DHT22;39588;51.124;7.190;2023-11-22T19:29:09;3.90;97.80
53695;DHT22;39588;51.124;7.190;2023-11-22T19:31:35;3.80;97.90
53695;DHT22;39588;51.124;7.190;2023-11-22T19:34:01;3.80;98.00
53695;DHT22;39588;51.124;7.190;2023-11-22T19:36:27;3.80;98.00
53695;DHT22;39588;51.124;7.190;2023-11-22T19:38:54;3.80;98.10
53695;DHT22;39588;51.124;7.190;2023-11-22T19:41:21;3.80;98.10
53695;DHT22;39588;51.124;7.190;2023-11-22T19:43:50;3.80;98.20
53695;DHT22;39588;51.124;7.190;2023-11-22T19:46:16;3.90;98.20
53695;DHT22;39588;51.124;7.190;2023-11-22T19:48:42;3.90;98.00